Terminal Aerodrome Forecast
Issued by NWS

Current Version | Previous Version | Text Only | Print | Product List | Glossary On
Versions: 1 2 3 4 5 6 7 8 9 10 11 12 13 14 15 16 17 18 19 20 21 22 23 24 25 26 27 28 29 30 31 32 33 34 35 36 37 38 39 40 41 42 43
000
FTAK31 PANC 162338
TAFADL
TAF
PADL 162338Z 1700/1724 04012G17KT 3SM RA BR SCT008 BKN030 OVC045
     FM170300 06011KT 6SM -RA BR SCT006 OVC015 WS015/14025KT
     FM170500 06011KT 6SM -RA BR BKN015 OVC025
     FM171100 03010KT P6SM -SHRA SCT015 BKN025=

USA.gov is the U.S. government's official web portal to all federal, state and local government web resources and services.